Time;durP1;ratioP1;P1;durP2;ratioP2;P2;SDS_P1;SDS_P2;PMS_P1;PMS_P2;Temp;Humidity;BMP_temperature;BMP_pressure;BME280_temperature;BME280_humidity;BME280_pressure;Samples;Min_cycle;Max_cycle;Signal;HPM_P1;HPM_P2
2023/04/29 00:03:08;;;;;;;;;;;17.20;63.80;;;;;;10171114;28;92617;-63
2023/04/29 00:08:10;;;;;;;;;;;17.20;63.80;;;;;;10170917;28;93585;-63
2023/04/29 00:13:12;;;;;;;;;;;17.20;63.70;;;;;;10170993;28;93303;-64
2023/04/29 00:18:14;;;;;;;;;;;17.20;63.70;;;;;;10168876;28;96865;-63
2023/04/29 00:23:16;;;;;;;;;;;17.20;63.60;;;;;;10171456;28;94482;-63
2023/04/29 00:28:17;;;;;;;;;;;17.20;63.60;;;;;;10152863;28;93799;-63
2023/04/29 00:33:19;;;;;;;;;;;17.20;63.60;;;;;;10184445;28;93273;-64
2023/04/29 00:38:21;;;;;;;;;;;17.20;63.50;;;;;;10170790;28;94502;-63
2023/04/29 00:43:23;;;;;;;;;;;17.20;63.50;;;;;;10152396;28;93280;-63
2023/04/29 00:48:25;;;;;;;;;;;17.20;63.50;;;;;;10151990;28;94472;-62
2023/04/29 00:53:27;;;;;;;;;;;17.20;63.40;;;;;;10152992;28;93098;-63
2023/04/29 00:58:32;;;;;;;;;;;17.20;63.40;;;;;;10169468;28;93892;-63
2023/04/29 01:03:34;;;;;;;;;;;17.20;63.30;;;;;;10152247;28;94513;-62
2023/04/29 01:08:36;;;;;;;;;;;17.20;63.30;;;;;;10167090;28;97096;-63
2023/04/29 01:13:48;;;;;;;;;;;17.20;63.30;;;;;;10169422;28;93691;-63
2023/04/29 01:18:54;;;;;;;;;;;17.20;63.20;;;;;;10151366;28;93281;-63
2023/04/29 01:23:56;;;;;;;;;;;17.20;63.10;;;;;;10168656;28;94484;-63
2023/04/29 01:29:08;;;;;;;;;;;17.20;64.10;;;;;;10168449;28;93738;-63
2023/04/29 01:34:24;;;;;;;;;;;17.20;63.00;;;;;;10169087;28;93670;-63
2023/04/29 01:39:31;;;;;;;;;;;17.20;63.00;;;;;;10167940;28;93422;-63
2023/04/29 01:44:33;;;;;;;;;;;17.20;62.90;;;;;;10169971;28;93728;-63
2023/04/29 01:49:36;;;;;;;;;;;17.20;63.00;;;;;;10168602;28;93262;-64
2023/04/29 01:54:38;;;;;;;;;;;17.10;62.90;;;;;;10168387;28;95273;-64
2023/04/29 01:59:40;;;;;;;;;;;17.20;62.90;;;;;;10166235;28;96664;-64
2023/04/29 02:04:42;;;;;;;;;;;17.10;62.80;;;;;;10168360;28;93804;-63
2023/04/29 02:09:44;;;;;;;;;;;17.10;62.80;;;;;;10167989;28;94688;-63
2023/04/29 02:14:46;;;;;;;;;;;17.10;62.80;;;;;;10168297;28;94627;-64
2023/04/29 02:19:48;;;;;;;;;;;17.10;62.80;;;;;;10166991;28;93412;-64
2023/04/29 02:24:50;;;;;;;;;;;17.10;62.80;;;;;;10166639;28;94404;-64
2023/04/29 02:29:52;;;;;;;;;;;17.10;62.80;;;;;;10166086;28;93458;-64
2023/04/29 02:34:54;;;;;;;;;;;17.10;62.80;;;;;;10167790;28;94138;-64
2023/04/29 02:39:56;;;;;;;;;;;17.10;62.80;;;;;;10166608;28;94570;-64
2023/04/29 02:44:58;;;;;;;;;;;17.10;62.80;;;;;;10181320;28;93588;-64
2023/04/29 02:50:00;;;;;;;;;;;17.10;62.80;;;;;;10163569;28;95594;-64
2023/04/29 02:55:02;;;;;;;;;;;17.00;62.70;;;;;;10148597;28;94063;-63
2023/04/29 03:00:04;;;;;;;;;;;17.00;62.70;;;;;;10165533;28;93515;-63
2023/04/29 03:05:06;;;;;;;;;;;17.00;62.70;;;;;;10165882;28;94617;-63
2023/04/29 03:10:08;;;;;;;;;;;17.00;62.70;;;;;;10148672;28;93085;-63
2023/04/29 03:15:10;;;;;;;;;;;17.00;62.70;;;;;;10165316;28;94619;-63
2023/04/29 03:20:12;;;;;;;;;;;17.00;62.70;;;;;;10165791;28;93437;-63
2023/04/29 03:25:14;;;;;;;;;;;17.00;62.70;;;;;;10166487;28;92877;-63
2023/04/29 03:30:15;;;;;;;;;;;17.00;62.70;;;;;;10165136;28;94376;-63
2023/04/29 03:35:17;;;;;;;;;;;16.90;62.70;;;;;;10167539;28;93463;-63
2023/04/29 03:40:19;;;;;;;;;;;16.90;62.60;;;;;;10152213;28;95965;-63
2023/04/29 03:45:21;;;;;;;;;;;16.90;62.70;;;;;;10172348;28;93457;-63
2023/04/29 05:03:03;;;;;;;;;;;16.90;62.50;;;;;;10191419;28;93063;-70
2023/04/29 05:08:05;;;;;;;;;;;16.90;62.20;;;;;;10183786;28;95754;-71
2023/04/29 05:13:07;;;;;;;;;;;17.00;62.20;;;;;;10209576;28;93428;-70
2023/04/29 05:18:08;;;;;;;;;;;17.00;62.10;;;;;;10209725;28;93545;-71
2023/04/29 05:23:10;;;;;;;;;;;17.00;62.10;;;;;;10210067;28;92974;-71
2023/04/29 05:28:13;;;;;;;;;;;17.00;62.00;;;;;;10210427;28;93674;-71
2023/04/29 05:33:14;;;;;;;;;;;17.00;62.00;;;;;;10209985;28;94472;-71
2023/04/29 05:38:16;;;;;;;;;;;17.00;62.00;;;;;;10189820;28;95905;-70
2023/04/29 05:43:17;;;;;;;;;;;17.00;62.00;;;;;;10209830;28;93147;-71
2023/04/29 05:48:19;;;;;;;;;;;17.00;61.90;;;;;;10206614;28;93262;-70
2023/04/29 05:53:21;;;;;;;;;;;17.00;61.90;;;;;;10208279;28;93466;-71
2023/04/29 05:58:22;;;;;;;;;;;17.00;61.90;;;;;;10209434;28;93771;-71
2023/04/29 06:03:24;;;;;;;;;;;17.00;61.90;;;;;;10190721;28;93593;-71
2023/04/29 06:08:26;;;;;;;;;;;17.00;61.90;;;;;;10224044;28;94044;-71
2023/04/29 06:13:29;;;;;;;;;;;17.00;62.00;;;;;;10209728;28;94031;-71
2023/04/29 06:18:31;;;;;;;;;;;17.00;61.90;;;;;;10191727;28;94757;-71
2023/04/29 06:23:33;;;;;;;;;;;17.00;61.90;;;;;;10208962;28;93366;-71
2023/04/29 06:28:34;;;;;;;;;;;17.00;61.80;;;;;;10205221;28;95910;-71
2023/04/29 06:33:36;;;;;;;;;;;17.00;61.90;;;;;;10190317;28;93299;-71
2023/04/29 06:38:37;;;;;;;;;;;17.00;61.90;;;;;;10190979;28;93367;-71
2023/04/29 06:43:41;;;;;;;;;;;17.10;61.90;;;;;;10190093;28;93658;-70
2023/04/29 06:48:43;;;;;;;;;;;17.20;61.70;;;;;;10207201;28;94499;-70
2023/04/29 06:53:45;;;;;;;;;;;17.30;61.50;;;;;;10207322;28;93328;-71
2023/04/29 06:58:47;;;;;;;;;;;17.40;61.30;;;;;;10189249;28;93892;-70
2023/04/29 07:03:49;;;;;;;;;;;17.40;61.10;;;;;;10190886;28;92812;-71
2023/04/29 07:08:51;;;;;;;;;;;17.50;60.90;;;;;;10207283;28;94445;-71
2023/04/29 07:13:56;;;;;;;;;;;17.50;60.80;;;;;;10197362;28;94747;-71
2023/04/29 07:18:58;;;;;;;;;;;17.50;60.70;;;;;;10211590;28;95347;-69
2023/04/29 07:24:03;;;;;;;;;;;17.50;61.30;;;;;;10197519;28;94575;-69
2023/04/29 07:29:05;;;;;;;;;;;17.50;62.90;;;;;;10206214;28;93239;-71
2023/04/29 07:34:06;;;;;;;;;;;17.70;64.50;;;;;;10212794;28;94557;-67
2023/04/29 07:39:08;;;;;;;;;;;17.80;64.40;;;;;;10212860;28;92608;-68
2023/04/29 07:44:10;;;;;;;;;;;17.90;65.00;;;;;;10213096;28;93996;-68
2023/04/29 07:49:12;;;;;;;;;;;18.00;64.80;;;;;;10211837;28;94408;-68
2023/04/29 07:54:14;;;;;;;;;;;18.10;63.80;;;;;;10213472;28;93476;-68
2023/04/29 07:59:16;;;;;;;;;;;18.20;63.60;;;;;;10212373;28;93409;-68
2023/04/29 08:04:18;;;;;;;;;;;18.20;63.60;;;;;;10211552;28;93055;-69
2023/04/29 08:09:20;;;;;;;;;;;18.30;63.60;;;;;;10208314;28;95865;-68
2023/04/29 08:14:21;;;;;;;;;;;18.30;63.00;;;;;;10210004;28;93285;-69
2023/04/29 08:19:23;;;;;;;;;;;18.30;63.30;;;;;;10211725;28;94451;-70
2023/04/29 08:24:25;;;;;;;;;;;18.20;63.20;;;;;;10210515;28;93407;-69
2023/04/29 08:29:27;;;;;;;;;;;18.10;63.00;;;;;;10210535;28;93778;-68
2023/04/29 08:34:30;;;;;;;;;;;18.10;62.80;;;;;;10211170;28;92564;-68
2023/04/29 08:39:32;;;;;;;;;;;18.00;59.00;;;;;;10193329;28;93576;-68
2023/04/29 08:44:34;;;;;;;;;;;17.90;57.70;;;;;;10211287;28;93924;-68
2023/04/29 08:49:37;;;;;;;;;;;17.80;57.00;;;;;;10209346;28;93376;-69
2023/04/29 08:54:38;;;;;;;;;;;17.70;56.80;;;;;;10209993;28;93555;-69
2023/04/29 08:59:41;;;;;;;;;;;17.80;57.60;;;;;;10206690;28;95927;-69
2023/04/29 09:04:46;;;;;;;;;;;17.80;57.80;;;;;;10210069;28;93862;-69
2023/04/29 09:09:50;;;;;;;;;;;18.00;58.30;;;;;;10209527;28;93527;-68
2023/04/29 09:14:52;;;;;;;;;;;18.10;58.00;;;;;;10209382;28;94460;-68
2023/04/29 09:19:55;;;;;;;;;;;18.30;58.20;;;;;;10193013;28;94452;-68
2023/04/29 09:25:10;;;;;;;;;;;18.30;58.10;;;;;;10208860;28;93538;-68
2023/04/29 09:30:12;;;;;;;;;;;18.40;57.90;;;;;;10209407;28;93338;-68
2023/04/29 09:35:20;;;;;;;;;;;18.50;57.90;;;;;;10210334;28;93421;-68
2023/04/29 09:40:31;;;;;;;;;;;18.50;57.90;;;;;;10191516;28;94532;-68
2023/04/29 09:45:42;;;;;;;;;;;18.50;58.00;;;;;;10192003;28;93386;-67
2023/04/29 09:50:57;;;;;;;;;;;18.50;58.30;;;;;;10205993;28;96280;-68
2023/04/29 09:56:00;;;;;;;;;;;18.60;58.30;;;;;;10207671;28;93513;-68
2023/04/29 10:01:03;;;;;;;;;;;18.60;58.10;;;;;;10176063;28;93098;-67
2023/04/29 10:06:05;;;;;;;;;;;18.70;58.00;;;;;;10200575;28;94511;-68
2023/04/29 10:11:09;;;;;;;;;;;18.70;57.90;;;;;;10190724;28;93393;-68
2023/04/29 10:16:22;;;;;;;;;;;18.80;57.90;;;;;;10208057;28;93673;-68
2023/04/29 10:21:29;;;;;;;;;;;18.80;57.80;;;;;;10207458;28;93379;-68
2023/04/29 10:26:32;;;;;;;;;;;18.80;57.80;;;;;;10208611;28;97131;-68
2023/04/29 10:31:35;;;;;;;;;;;18.80;57.80;;;;;;10207807;28;93666;-68
2023/04/29 10:36:37;;;;;;;;;;;18.70;57.70;;;;;;10190184;28;93503;-68
2023/04/29 10:41:45;;;;;;;;;;;18.70;57.80;;;;;;10187562;28;97031;-68
2023/04/29 10:46:47;;;;;;;;;;;18.70;58.20;;;;;;10217717;28;93873;-68
2023/04/29 10:51:49;;;;;;;;;;;18.60;58.10;;;;;;10219775;28;93519;-68
2023/04/29 10:56:51;;;;;;;;;;;18.60;58.10;;;;;;10203206;28;94521;-68
2023/04/29 11:01:53;;;;;;;;;;;18.60;58.20;;;;;;10221083;28;93544;-68
2023/04/29 11:06:56;;;;;;;;;;;18.60;58.30;;;;;;10220050;28;94513;-68
2023/04/29 11:12:02;;;;;;;;;;;18.60;58.50;;;;;;10220531;28;115342;-68
2023/04/29 11:17:07;;;;;;;;;;;18.60;58.50;;;;;;10220493;28;93806;-66
2023/04/29 11:22:10;;;;;;;;;;;18.50;58.50;;;;;;10202910;28;93492;-68
2023/04/29 11:27:12;;;;;;;;;;;18.50;59.50;;;;;;10219905;28;93909;-69
2023/04/29 11:32:14;;;;;;;;;;;18.60;59.50;;;;;;10199700;28;96695;-67
2023/04/29 11:37:20;;;;;;;;;;;18.60;56.60;;;;;;10219162;28;93913;-67
2023/04/29 11:42:22;;;;;;;;;;;18.50;55.30;;;;;;10218662;28;93366;-66
2023/04/29 11:47:28;;;;;;;;;;;18.50;54.30;;;;;;10201242;28;93145;-66
2023/04/29 11:52:30;;;;;;;;;;;18.40;53.80;;;;;;10218989;28;93379;-67
2023/04/29 11:57:32;;;;;;;;;;;18.30;54.00;;;;;;10195816;28;94035;-65
2023/04/29 12:02:34;;;;;;;;;;;18.20;53.80;;;;;;10195009;28;93538;-63
2023/04/29 12:07:37;;;;;;;;;;;18.10;54.40;;;;;;10194674;28;92775;-69
2023/04/29 12:12:40;;;;;;;;;;;18.10;54.10;;;;;;10212174;28;94667;-69
2023/04/29 12:17:42;;;;;;;;;;;18.10;54.20;;;;;;10210310;28;93619;-69
2023/04/29 12:22:44;;;;;;;;;;;18.10;54.30;;;;;;10209628;28;95952;-68
2023/04/29 12:27:46;;;;;;;;;;;18.10;54.40;;;;;;10211249;28;94730;-68
2023/04/29 12:32:47;;;;;;;;;;;18.20;54.60;;;;;;10209944;28;93022;-68
2023/04/29 12:37:50;;;;;;;;;;;18.20;54.70;;;;;;10211392;28;92995;-68
2023/04/29 12:42:54;;;;;;;;;;;18.20;54.80;;;;;;10211130;28;94126;-69
2023/04/29 12:47:56;;;;;;;;;;;18.20;55.20;;;;;;10226071;28;93548;-68
2023/04/29 12:52:58;;;;;;;;;;;18.30;55.50;;;;;;10211337;28;94551;-68
2023/04/29 12:58:00;;;;;;;;;;;18.30;55.60;;;;;;10212148;28;92685;-67
2023/04/29 13:03:04;;;;;;;;;;;18.30;55.90;;;;;;10193255;28;93494;-69
2023/04/29 13:08:07;;;;;;;;;;;18.30;56.10;;;;;;10210101;28;93585;-68
2023/04/29 13:13:09;;;;;;;;;;;18.30;56.20;;;;;;10208223;28;97521;-69
2023/04/29 13:18:10;;;;;;;;;;;18.30;56.20;;;;;;10194126;28;97128;-69
2023/04/29 13:23:12;;;;;;;;;;;18.30;55.70;;;;;;10210023;28;94229;-70
2023/04/29 13:28:14;;;;;;;;;;;18.30;55.90;;;;;;10192221;28;93121;-69
2023/04/29 13:33:15;;;;;;;;;;;18.30;56.20;;;;;;10209573;28;93859;-69
2023/04/29 13:38:19;;;;;;;;;;;18.30;56.30;;;;;;10208861;28;93369;-69
2023/04/29 13:43:20;;;;;;;;;;;18.30;56.50;;;;;;10209937;28;93478;-69
2023/04/29 13:48:39;;;;;;;;;;;18.30;56.70;;;;;;10209987;28;92733;-69
2023/04/29 13:53:43;;;;;;;;;;;18.30;56.80;;;;;;10208819;28;93907;-69
2023/04/29 13:59:05;;;;;;;;;;;18.30;56.80;;;;;;10209300;28;95480;-68
2023/04/29 14:04:09;;;;;;;;;;;18.30;56.70;;;;;;10189407;28;96080;-69
2023/04/29 14:09:11;;;;;;;;;;;18.30;56.60;;;;;;10207507;28;93583;-69
2023/04/29 14:14:13;;;;;;;;;;;18.30;56.60;;;;;;10208666;28;93773;-69
2023/04/29 14:19:15;;;;;;;;;;;18.30;56.60;;;;;;10207854;28;94425;-69
2023/04/29 14:24:17;;;;;;;;;;;18.30;56.60;;;;;;10208305;28;93829;-69
2023/04/29 14:29:19;;;;;;;;;;;18.30;56.70;;;;;;10190913;28;94571;-69
2023/04/29 14:34:21;;;;;;;;;;;18.30;56.60;;;;;;10191440;28;93417;-69
2023/04/29 14:39:22;;;;;;;;;;;18.30;56.70;;;;;;10210957;28;93796;-69
2023/04/29 14:44:24;;;;;;;;;;;18.30;56.70;;;;;;10208999;28;93333;-69
2023/04/29 14:49:26;;;;;;;;;;;18.30;56.80;;;;;;10208049;28;94879;-69
2023/04/29 14:54:30;;;;;;;;;;;18.30;56.90;;;;;;10206174;28;95825;-70
2023/04/29 14:59:32;;;;;;;;;;;18.30;56.90;;;;;;10208457;28;94750;-69
2023/04/29 15:04:34;;;;;;;;;;;18.30;56.80;;;;;;10189499;28;95024;-69
2023/04/29 15:09:35;;;;;;;;;;;18.30;56.70;;;;;;10206665;28;94062;-69
2023/04/29 15:14:37;;;;;;;;;;;18.30;56.90;;;;;;10206093;28;94221;-70
2023/04/29 15:19:39;;;;;;;;;;;18.30;57.10;;;;;;10190072;28;94623;-69
2023/04/29 15:24:40;;;;;;;;;;;18.30;57.60;;;;;;10207038;28;94555;-69
2023/04/29 15:29:42;;;;;;;;;;;18.40;58.70;;;;;;10207037;28;92674;-69
2023/04/29 15:34:44;;;;;;;;;;;18.50;58.70;;;;;;10195370;28;95021;-72
2023/04/29 15:39:46;;;;;;;;;;;18.60;58.90;;;;;;10213685;28;93480;-70
2023/04/29 15:44:48;;;;;;;;;;;18.60;58.50;;;;;;10210615;28;96166;-70
2023/04/29 15:49:50;;;;;;;;;;;18.50;58.50;;;;;;10212832;28;94463;-70
2023/04/29 15:54:53;;;;;;;;;;;18.50;58.70;;;;;;10212895;28;94461;-70
2023/04/29 15:59:55;;;;;;;;;;;18.60;59.10;;;;;;10211955;28;93639;-70
2023/04/29 16:04:57;;;;;;;;;;;18.60;59.80;;;;;;10212166;28;93427;-70
2023/04/29 16:09:58;;;;;;;;;;;18.60;60.10;;;;;;10211650;28;93036;-70
2023/04/29 16:15:00;;;;;;;;;;;18.70;60.40;;;;;;10209914;28;93367;-71
2023/04/29 16:20:02;;;;;;;;;;;18.70;60.60;;;;;;10194918;28;94161;-71
2023/04/29 16:25:05;;;;;;;;;;;18.70;60.70;;;;;;10211242;28;93330;-71
2023/04/29 16:30:07;;;;;;;;;;;18.80;60.80;;;;;;10210590;28;93477;-71
2023/04/29 16:35:09;;;;;;;;;;;18.80;60.90;;;;;;10208423;28;96050;-71
2023/04/29 16:40:11;;;;;;;;;;;18.80;60.90;;;;;;10209768;28;93419;-70
2023/04/29 16:45:13;;;;;;;;;;;18.80;61.00;;;;;;10192374;28;94321;-71
2023/04/29 16:50:16;;;;;;;;;;;18.90;61.10;;;;;;10209577;28;93513;-70
2023/04/29 16:55:17;;;;;;;;;;;18.90;61.10;;;;;;10209858;28;93219;-70
2023/04/29 17:00:19;;;;;;;;;;;18.90;61.00;;;;;;10193637;28;92688;-70
2023/04/29 17:05:20;;;;;;;;;;;18.90;61.10;;;;;;10209959;28;93501;-70
2023/04/29 17:10:22;;;;;;;;;;;19.00;61.20;;;;;;10210075;28;92561;-70
2023/04/29 17:15:24;;;;;;;;;;;19.00;61.10;;;;;;10210231;28;93341;-70
2023/04/29 17:20:26;;;;;;;;;;;19.10;61.10;;;;;;10209396;28;93655;-70
2023/04/29 17:25:28;;;;;;;;;;;19.10;61.10;;;;;;10189782;28;96827;-70
2023/04/29 17:30:30;;;;;;;;;;;19.10;61.10;;;;;;10208609;28;92550;-70
2023/04/29 17:35:32;;;;;;;;;;;19.20;61.20;;;;;;10191834;28;93672;-70
2023/04/29 17:40:34;;;;;;;;;;;19.20;61.20;;;;;;10191506;28;94489;-70
2023/04/29 17:45:38;;;;;;;;;;;19.20;61.20;;;;;;10191644;28;96150;-69
2023/04/29 17:50:39;;;;;;;;;;;19.30;61.40;;;;;;10207878;28;94477;-70
2023/04/29 17:55:45;;;;;;;;;;;19.30;61.40;;;;;;10189676;28;94369;-70
2023/04/29 18:00:47;;;;;;;;;;;19.30;61.30;;;;;;10207869;28;92729;-70
2023/04/29 18:05:49;;;;;;;;;;;19.30;61.40;;;;;;10207894;28;94625;-70
2023/04/29 18:10:51;;;;;;;;;;;19.20;61.40;;;;;;10207041;28;94138;-70
2023/04/29 18:15:53;;;;;;;;;;;19.20;61.50;;;;;;10205231;28;95320;-71
2023/04/29 18:20:57;;;;;;;;;;;19.20;61.60;;;;;;10207388;28;94212;-70
2023/04/29 18:25:59;;;;;;;;;;;19.10;61.60;;;;;;10207965;28;93796;-70
2023/04/29 18:31:01;;;;;;;;;;;19.10;61.70;;;;;;10207475;28;94003;-70
2023/04/29 18:36:03;;;;;;;;;;;19.00;61.70;;;;;;10207199;28;93553;-71
2023/04/29 18:41:07;;;;;;;;;;;19.00;61.80;;;;;;10208023;28;94927;-70
2023/04/29 18:46:08;;;;;;;;;;;18.90;61.90;;;;;;10207800;28;94572;-70
2023/04/29 18:51:10;;;;;;;;;;;18.90;62.00;;;;;;10189744;28;93130;-70
2023/04/29 18:56:12;;;;;;;;;;;18.80;62.00;;;;;;10206384;28;94276;-71
2023/04/29 19:01:13;;;;;;;;;;;18.80;62.10;;;;;;10206466;28;93419;-70
2023/04/29 19:06:15;;;;;;;;;;;18.80;61.60;;;;;;10206545;28;96452;-71
2023/04/29 19:11:17;;;;;;;;;;;18.80;61.60;;;;;;10212356;28;93470;-73
2023/04/29 19:16:18;;;;;;;;;;;18.80;63.30;;;;;;10212645;28;93288;-73
2023/04/29 19:21:20;;;;;;;;;;;18.80;62.30;;;;;;10213159;28;93489;-74
2023/04/29 19:26:22;;;;;;;;;;;18.80;62.20;;;;;;10213052;28;93754;-74
2023/04/29 19:31:24;;;;;;;;;;;18.80;62.20;;;;;;10212968;28;93481;-73
2023/04/29 19:36:25;;;;;;;;;;;18.70;62.30;;;;;;10212512;28;93650;-73
2023/04/29 19:41:27;;;;;;;;;;;18.70;62.40;;;;;;10213824;28;92000;-73
2023/04/29 19:46:29;;;;;;;;;;;18.70;62.40;;;;;;10195533;28;94245;-72
2023/04/29 19:51:31;;;;;;;;;;;18.70;62.30;;;;;;10211082;28;93741;-72
2023/04/29 19:56:33;;;;;;;;;;;18.70;62.30;;;;;;10192246;28;95994;-72
2023/04/29 20:01:35;;;;;;;;;;;18.60;62.30;;;;;;10195038;28;93586;-72
2023/04/29 20:06:37;;;;;;;;;;;18.70;62.40;;;;;;10211421;28;94660;-72
2023/04/29 20:11:39;;;;;;;;;;;18.60;62.40;;;;;;10211077;28;93666;-73
2023/04/29 20:16:40;;;;;;;;;;;18.60;62.40;;;;;;10210078;28;93288;-72
2023/04/29 20:21:42;;;;;;;;;;;18.60;62.50;;;;;;10212021;28;93657;-73
2023/04/29 20:26:44;;;;;;;;;;;18.50;62.50;;;;;;10211870;28;94427;-73
2023/04/29 20:31:46;;;;;;;;;;;18.50;62.60;;;;;;10212905;28;93147;-73
2023/04/29 20:36:48;;;;;;;;;;;18.50;62.50;;;;;;10211673;28;94174;-72
2023/04/29 20:41:50;;;;;;;;;;;18.50;62.60;;;;;;10210840;28;93427;-72
2023/04/29 21:06:06;;;;;;;;;;;18.50;62.30;;;;;;10219001;28;92670;-74
2023/04/29 21:11:09;;;;;;;;;;;18.40;62.10;;;;;;10212506;28;94477;-73
2023/04/29 21:16:10;;;;;;;;;;;18.40;62.00;;;;;;10194031;28;94635;-73
2023/04/29 21:21:12;;;;;;;;;;;18.30;61.80;;;;;;10211820;28;93686;-73
2023/04/29 21:26:14;;;;;;;;;;;18.30;61.80;;;;;;10212297;28;93112;-73
2023/04/29 21:31:15;;;;;;;;;;;18.30;61.70;;;;;;10211609;28;93676;-73
2023/04/29 21:36:17;;;;;;;;;;;18.30;61.70;;;;;;10212034;28;94510;-73
2023/04/29 21:41:27;;;;;;;;;;;18.30;61.60;;;;;;10190916;28;95692;-73
2023/04/29 21:46:29;;;;;;;;;;;18.30;61.50;;;;;;10210102;28;94347;-74
2023/04/29 21:51:32;;;;;;;;;;;18.20;61.30;;;;;;10192765;28;93235;-73
2023/04/29 21:56:34;;;;;;;;;;;18.20;61.30;;;;;;10209686;28;94619;-73
2023/04/29 22:01:47;;;;;;;;;;;18.20;61.20;;;;;;10191305;28;93569;-74
2023/04/29 22:06:49;;;;;;;;;;;18.20;61.20;;;;;;10208711;28;94953;-74
2023/04/29 22:11:51;;;;;;;;;;;18.20;61.10;;;;;;10209321;28;94777;-75
2023/04/29 22:16:53;;;;;;;;;;;18.20;61.00;;;;;;10209689;28;92508;-73
2023/04/29 22:21:55;;;;;;;;;;;18.20;61.00;;;;;;10209300;28;93590;-74
2023/04/29 22:26:57;;;;;;;;;;;18.20;60.90;;;;;;10192007;28;93905;-73
2023/04/29 22:31:58;;;;;;;;;;;18.20;60.90;;;;;;10206203;28;96024;-73
2023/04/29 22:37:01;;;;;;;;;;;18.20;60.80;;;;;;10208295;28;93856;-73
2023/04/29 22:42:03;;;;;;;;;;;18.20;60.80;;;;;;10190783;28;92569;-73
2023/04/29 22:47:05;;;;;;;;;;;18.20;60.60;;;;;;10190159;28;93415;-73
2023/04/29 22:52:07;;;;;;;;;;;18.20;60.60;;;;;;10208141;28;94455;-73
2023/04/29 22:57:09;;;;;;;;;;;18.10;60.60;;;;;;10207975;28;93297;-72
2023/04/29 23:02:10;;;;;;;;;;;18.10;60.50;;;;;;10223433;28;93625;-73
2023/04/29 23:07:12;;;;;;;;;;;18.10;60.40;;;;;;10207875;28;92836;-73
2023/04/29 23:12:15;;;;;;;;;;;18.10;60.40;;;;;;10206853;28;94809;-73
2023/04/29 23:17:16;;;;;;;;;;;18.10;60.40;;;;;;10207407;28;92483;-73
2023/04/29 23:22:18;;;;;;;;;;;18.10;60.40;;;;;;10205177;28;95891;-74
2023/04/29 23:27:20;;;;;;;;;;;18.10;60.30;;;;;;10207626;28;92967;-73
2023/04/29 23:32:23;;;;;;;;;;;18.10;60.30;;;;;;10207891;28;93651;-73
2023/04/29 23:37:25;;;;;;;;;;;18.10;60.30;;;;;;10189072;28;93710;-73
2023/04/29 23:42:26;;;;;;;;;;;18.10;60.30;;;;;;10208119;28;93522;-73
2023/04/29 23:47:28;;;;;;;;;;;18.10;60.30;;;;;;10207587;28;94730;-73
2023/04/29 23:52:30;;;;;;;;;;;18.10;60.20;;;;;;10210912;28;93456;-73
2023/04/29 23:57:33;;;;;;;;;;;18.10;60.20;;;;;;10199357;28;91860;-73
